Time;durP1;ratioP1;P1;durP2;ratioP2;P2;SDS_P1;SDS_P2;PMS_P1;PMS_P2;Temp;Humidity;BMP_temperature;BMP_pressure;BME280_temperature;BME280_humidity;BME280_pressure;Samples;Min_cycle;Max_cycle;Signal;HPM_P1;HPM_P2
2023/06/23 00:00:09;;;;;;;;;;;;;;;18.02;100.00;99922.63;5011902;28;873;-63
2023/06/23 00:02:35;;;;;;;;;;;;;;;17.90;100.00;99938.19;5012125;28;866;-63
2023/06/23 00:05:04;;;;;;;;;;;;;;;17.81;100.00;99940.06;5011847;28;823;-62
2023/06/23 00:07:31;;;;;;;;;;;;;;;17.68;100.00;99934.50;5012262;28;764;-64
2023/06/23 00:09:58;;;;;;;;;;;;;;;17.56;100.00;99944.47;5011962;28;905;-63
2023/06/23 00:12:25;;;;;;;;;;;;;;;17.44;100.00;99945.22;5011502;28;1878;-62
2023/06/23 00:14:52;;;;;;;;;;;;;;;17.31;100.00;99948.78;5011321;28;815;-63
2023/06/23 00:17:20;;;;;;;;;;;;;;;17.21;100.00;99958.28;5011606;28;740;-63
2023/06/23 00:19:47;;;;;;;;;;;;;;;17.11;100.00;99957.38;5011584;28;821;-63
2023/06/23 00:22:14;;;;;;;;;;;;;;;16.98;100.00;99964.91;5011404;28;823;-63
2023/06/23 00:24:41;;;;;;;;;;;;;;;16.87;100.00;99965.22;5011380;28;867;-63
2023/06/23 00:27:07;;;;;;;;;;;;;;;16.74;100.00;99959.56;5010951;28;995;-62
2023/06/23 00:29:34;;;;;;;;;;;;;;;16.68;100.00;99968.91;5012476;28;893;-63
2023/06/23 00:32:02;;;;;;;;;;;;;;;16.67;100.00;99962.56;5014628;28;2071;-63
2023/06/23 00:34:29;;;;;;;;;;;;;;;16.70;100.00;99961.66;5014779;28;883;-64
2023/06/23 00:36:55;;;;;;;;;;;;;;;16.74;100.00;99967.16;5014807;28;831;-62
2023/06/23 00:39:22;;;;;;;;;;;;;;;16.77;100.00;99966.28;5014908;28;779;-62
2023/06/23 00:41:48;;;;;;;;;;;;;;;16.80;100.00;99971.00;5014381;28;866;-62
2023/06/23 00:44:16;;;;;;;;;;;;;;;16.77;100.00;99968.28;5014395;28;901;-62
2023/06/23 00:46:43;;;;;;;;;;;;;;;16.78;100.00;99973.44;5014471;28;897;-63
2023/06/23 00:49:13;;;;;;;;;;;;;;;16.78;100.00;99970.63;5014158;28;921;-62
2023/06/23 00:51:40;;;;;;;;;;;;;;;16.82;100.00;99971.34;5014020;28;1951;-63
2023/06/23 00:54:07;;;;;;;;;;;;;;;16.89;100.00;99962.78;5013977;28;847;-63
2023/06/23 00:56:35;;;;;;;;;;;;;;;16.98;100.00;99958.56;5013916;28;831;-62
2023/06/23 00:59:02;;;;;;;;;;;;;;;17.06;100.00;99959.91;5013841;28;847;-62
2023/06/23 01:01:31;;;;;;;;;;;;;;;17.12;100.00;99964.50;5013961;28;827;-63
2023/06/23 01:04:00;;;;;;;;;;;;;;;17.17;100.00;99967.97;5013798;28;883;-62
2023/06/23 01:06:48;;;;;;;;;;;;;;;17.29;100.00;99961.66;5013704;28;1028;-62
2023/06/23 01:09:36;;;;;;;;;;;;;;;17.52;100.00;99955.75;5013686;28;1179;-62
2023/06/23 01:12:07;;;;;;;;;;;;;;;17.64;100.00;99958.97;4919566;28;2721779;-62
2023/06/23 01:14:52;;;;;;;;;;;;;;;17.61;100.00;99962.69;5015065;28;1017;-63
2023/06/23 01:17:26;;;;;;;;;;;;;;;17.43;100.00;99971.59;4997268;28;1368;-63
2023/06/23 01:19:55;;;;;;;;;;;;;;;17.26;100.00;99971.69;5014795;28;807;-63
2023/06/23 01:22:36;;;;;;;;;;;;;;;17.22;100.00;99964.63;5014770;28;829;-63
2023/06/23 01:25:26;;;;;;;;;;;;;;;17.16;100.00;99970.00;5014753;28;839;-64
2023/06/23 01:28:09;;;;;;;;;;;;;;;17.02;100.00;99970.41;4995545;28;1097;-63
2023/06/23 01:30:37;;;;;;;;;;;;;;;16.89;100.00;99968.34;5014598;28;905;-62
2023/06/23 01:33:15;;;;;;;;;;;;;;;16.79;100.00;99977.00;5014550;28;1923;-62
2023/06/23 01:35:44;;;;;;;;;;;;;;;16.61;100.00;99975.47;5014506;28;831;-62
2023/06/23 01:38:18;;;;;;;;;;;;;;;16.51;100.00;99970.97;5015116;28;764;-63
2023/06/23 01:40:46;;;;;;;;;;;;;;;16.39;100.00;99975.28;5014023;28;807;-62
2023/06/23 01:43:14;;;;;;;;;;;;;;;16.28;100.00;99981.13;5014373;28;866;-62
2023/06/23 01:45:41;;;;;;;;;;;;;;;16.18;100.00;99982.19;5014367;28;819;-62
2023/06/23 01:48:11;;;;;;;;;;;;;;;16.08;100.00;99986.78;5014426;28;882;-62
2023/06/23 01:50:40;;;;;;;;;;;;;;;16.01;100.00;99984.19;5014148;28;828;-62
2023/06/23 01:53:07;;;;;;;;;;;;;;;15.99;100.00;99975.47;5014155;28;1886;-62
2023/06/23 01:55:37;;;;;;;;;;;;;;;15.95;100.00;99982.34;5014393;28;823;-62
2023/06/23 01:58:03;;;;;;;;;;;;;;;15.89;100.00;99987.66;5014051;28;878;-62
2023/06/23 02:00:31;;;;;;;;;;;;;;;15.96;100.00;99990.28;5014107;28;870;-63
2023/06/23 02:02:59;;;;;;;;;;;;;;;16.07;100.00;99990.81;5013901;28;954;-63
2023/06/23 02:05:27;;;;;;;;;;;;;;;16.13;100.00;99986.28;5013951;28;815;-62
2023/06/23 02:07:54;;;;;;;;;;;;;;;16.18;100.00;99990.53;5013878;28;814;-63
2023/06/23 02:10:24;;;;;;;;;;;;;;;16.30;100.00;99986.25;5013849;28;806;-63
2023/06/23 02:12:53;;;;;;;;;;;;;;;16.40;100.00;99987.97;5013887;28;1890;-64
2023/06/23 02:15:21;;;;;;;;;;;;;;;16.41;100.00;99984.00;5013746;28;839;-63
2023/06/23 02:17:49;;;;;;;;;;;;;;;16.50;100.00;99986.16;5013656;28;858;-63
2023/06/23 02:20:16;;;;;;;;;;;;;;;16.67;100.00;99992.47;5013714;28;842;-63
2023/06/23 02:22:52;;;;;;;;;;;;;;;16.79;100.00;99996.53;5013647;28;1039;-62
2023/06/23 02:25:19;;;;;;;;;;;;;;;16.87;100.00;100000.72;5013575;28;811;-63
2023/06/23 02:27:47;;;;;;;;;;;;;;;16.93;100.00;100013.72;5013519;28;839;-63
2023/06/23 02:30:14;;;;;;;;;;;;;;;16.98;100.00;100014.41;5013452;28;839;-62
2023/06/23 02:32:41;;;;;;;;;;;;;;;17.00;100.00;100011.94;5013174;28;1973;-63
2023/06/23 02:35:09;;;;;;;;;;;;;;;16.99;100.00;100019.53;5013443;28;811;-63
2023/06/23 02:37:39;;;;;;;;;;;;;;;16.98;100.00;100031.16;5013546;28;882;-64
2023/06/23 02:40:16;;;;;;;;;;;;;;;16.97;100.00;100022.00;5013263;28;855;-64
2023/06/23 02:42:47;;;;;;;;;;;;;;;16.99;100.00;100025.13;5013249;28;902;-63
2023/06/23 02:45:16;;;;;;;;;;;;;;;17.02;100.00;100026.25;5013175;28;823;-63
2023/06/23 02:47:44;;;;;;;;;;;;;;;16.99;100.00;100030.72;5013243;28;1040;-63
2023/06/23 02:50:16;;;;;;;;;;;;;;;16.97;100.00;100024.78;5013345;28;877;-63
2023/06/23 02:52:47;;;;;;;;;;;;;;;16.99;100.00;100018.78;5012762;28;1886;-63
2023/06/23 02:55:17;;;;;;;;;;;;;;;17.05;100.00;100023.38;5012899;28;886;-63
2023/06/23 02:57:46;;;;;;;;;;;;;;;17.11;100.00;100018.00;5013011;28;815;-63
2023/06/23 03:00:19;;;;;;;;;;;;;;;17.15;100.00;100024.28;5013103;28;893;-63
2023/06/23 03:02:48;;;;;;;;;;;;;;;17.22;100.00;100026.06;5012827;28;818;-63
2023/06/23 03:05:15;;;;;;;;;;;;;;;17.29;100.00;100031.47;5012879;28;881;-63
2023/06/23 03:07:43;;;;;;;;;;;;;;;17.37;100.00;100032.03;5012642;28;868;-63
2023/06/23 03:10:10;;;;;;;;;;;;;;;17.48;100.00;100024.91;5012816;28;787;-63
2023/06/23 03:12:36;;;;;;;;;;;;;;;17.62;100.00;100018.09;5012475;28;1886;-64
2023/06/23 03:15:03;;;;;;;;;;;;;;;17.85;100.00;100019.06;5012805;28;890;-64
2023/06/23 03:17:31;;;;;;;;;;;;;;;18.08;100.00;100020.72;5012557;28;909;-63
2023/06/23 03:20:05;;;;;;;;;;;;;;;18.29;100.00;100024.84;5012619;28;988;-63
2023/06/23 03:22:35;;;;;;;;;;;;;;;18.51;100.00;100027.69;5012516;28;807;-63
2023/06/23 03:25:05;;;;;;;;;;;;;;;18.72;100.00;100034.59;5012456;28;818;-64
2023/06/23 03:27:33;;;;;;;;;;;;;;;18.91;100.00;100024.34;5012223;28;865;-64
2023/06/23 03:30:07;;;;;;;;;;;;;;;19.02;100.00;100026.75;5012492;28;862;-63
2023/06/23 03:32:40;;;;;;;;;;;;;;;19.11;100.00;100032.44;5012296;28;1942;-64
2023/06/23 03:35:13;;;;;;;;;;;;;;;19.21;100.00;100031.25;5012270;28;839;-65
2023/06/23 03:37:45;;;;;;;;;;;;;;;19.33;100.00;100022.00;5012261;28;854;-63
2023/06/23 03:40:14;;;;;;;;;;;;;;;19.45;100.00;100023.16;5012083;28;835;-63
2023/06/23 03:42:44;;;;;;;;;;;;;;;19.57;100.00;100024.31;5012217;28;847;-63
2023/06/23 03:45:12;;;;;;;;;;;;;;;19.67;100.00;100020.31;5012265;28;834;-63
2023/06/23 03:47:39;;;;;;;;;;;;;;;19.75;100.00;100018.81;5012170;28;831;-63
2023/06/23 03:50:10;;;;;;;;;;;;;;;19.84;100.00;100017.28;5012134;28;974;-64
2023/06/23 03:52:39;;;;;;;;;;;;;;;19.95;100.00;100015.63;5011997;28;1947;-63
2023/06/23 03:55:07;;;;;;;;;;;;;;;20.13;100.00;100014.13;5011782;28;835;-63
2023/06/23 03:57:35;;;;;;;;;;;;;;;20.30;100.00;100009.03;5012056;28;878;-63
2023/06/23 04:00:03;;;;;;;;;;;;;;;20.47;100.00;100009.53;5011978;28;850;-63
2023/06/23 04:02:31;;;;;;;;;;;;;;;20.64;100.00;100008.00;5011994;28;878;-63
2023/06/23 04:04:59;;;;;;;;;;;;;;;20.78;100.00;100006.59;5011850;28;875;-64
2023/06/23 04:07:28;;;;;;;;;;;;;;;20.94;100.00;100008.31;5011920;28;858;-64
2023/06/23 04:09:56;;;;;;;;;;;;;;;21.04;100.00;100012.69;5011773;28;895;-63
2023/06/23 04:12:22;;;;;;;;;;;;;;;21.11;100.00;100014.38;5011631;28;1882;-63
2023/06/23 04:14:54;;;;;;;;;;;;;;;21.32;100.00;100009.81;5011775;28;959;-63
2023/06/23 04:17:22;;;;;;;;;;;;;;;21.45;100.00;100018.09;5011715;28;870;-63
2023/06/23 04:19:52;;;;;;;;;;;;;;;21.55;100.00;100019.63;5011717;28;858;-63
2023/06/23 04:22:20;;;;;;;;;;;;;;;21.67;100.00;100013.03;5012057;28;866;-63
2023/06/23 04:24:48;;;;;;;;;;;;;;;21.80;100.00;100010.78;5011870;28;930;-63
2023/06/23 04:27:17;;;;;;;;;;;;;;;21.95;100.00;100005.25;5011786;28;881;-63
2023/06/23 04:29:45;;;;;;;;;;;;;;;22.15;100.00;100007.50;4994061;28;1376;-64
2023/06/23 04:32:13;;;;;;;;;;;;;;;22.33;100.00;100009.44;5011782;28;1906;-64
2023/06/23 04:34:40;;;;;;;;;;;;;;;22.38;100.00;100013.63;4994073;28;1281;-64
2023/06/23 04:37:19;;;;;;;;;;;;;;;22.37;100.00;100003.63;5011592;28;874;-63
2023/06/23 04:39:48;;;;;;;;;;;;;;;22.30;100.00;100018.09;4993817;28;1186;-63
2023/06/23 04:42:16;;;;;;;;;;;;;;;22.29;100.00;100013.69;5011530;28;909;-63
2023/06/23 04:44:48;;;;;;;;;;;;;;;22.30;100.00;100016.03;5012397;28;823;-64
2023/06/23 04:47:17;;;;;;;;;;;;;;;22.35;100.00;100015.38;5011537;28;863;-63
2023/06/23 04:49:45;;;;;;;;;;;;;;;22.51;100.00;100021.84;5011436;28;811;-64
2023/06/23 04:52:14;;;;;;;;;;;;;;;22.70;100.00;100016.84;5011336;28;1886;-64
2023/06/23 04:54:44;;;;;;;;;;;;;;;22.69;100.00;100027.34;5011390;28;925;-64
2023/06/23 04:57:13;;;;;;;;;;;;;;;22.63;100.00;100018.78;5011362;28;933;-64
2023/06/23 04:59:41;;;;;;;;;;;;;;;22.75;100.00;100024.66;5011358;28;846;-63
2023/06/23 05:02:11;;;;;;;;;;;;;;;22.90;100.00;100025.47;5011424;28;816;-63
2023/06/23 05:04:39;;;;;;;;;;;;;;;23.09;100.00;100030.97;4994021;28;1285;-64
2023/06/23 05:07:07;;;;;;;;;;;;;;;23.13;100.00;100028.72;5011316;28;846;-63
2023/06/23 05:09:34;;;;;;;;;;;;;;;23.19;100.00;100030.41;5011197;28;854;-63
2023/06/23 05:12:03;;;;;;;;;;;;;;;23.34;100.00;100024.78;5011611;28;1940;-64
2023/06/23 05:14:31;;;;;;;;;;;;;;;23.34;100.00;100023.97;4993786;28;862;-63
2023/06/23 05:16:59;;;;;;;;;;;;;;;23.33;100.00;100013.97;5014612;28;866;-63
2023/06/23 05:19:28;;;;;;;;;;;;;;;23.44;100.00;100019.78;5014840;28;830;-63
2023/06/23 05:21:57;;;;;;;;;;;;;;;23.58;100.00;100026.72;5014768;28;826;-63
2023/06/23 05:24:26;;;;;;;;;;;;;;;23.58;100.00;100021.84;5014646;28;918;-63
2023/06/23 05:26:55;;;;;;;;;;;;;;;23.72;100.00;100025.13;5014574;28;866;-63
2023/06/23 05:29:22;;;;;;;;;;;;;;;24.11;100.00;100022.94;5014537;28;823;-63
2023/06/23 05:31:49;;;;;;;;;;;;;;;24.62;100.00;100026.44;5014590;28;1911;-63
2023/06/23 05:34:17;;;;;;;;;;;;;;;25.24;100.00;100021.50;5014528;28;973;-63
2023/06/23 05:36:46;;;;;;;;;;;;;;;25.58;100.00;100033.13;5014499;28;867;-63
2023/06/23 05:39:16;;;;;;;;;;;;;;;25.72;100.00;100037.13;5014473;28;918;-65
2023/06/23 05:41:43;;;;;;;;;;;;;;;25.78;100.00;100043.59;5014336;28;866;-63
2023/06/23 05:44:09;;;;;;;;;;;;;;;25.76;100.00;100044.09;5014294;28;815;-63
2023/06/23 05:46:38;;;;;;;;;;;;;;;25.82;100.00;100047.75;5014273;28;842;-64
2023/06/23 05:49:08;;;;;;;;;;;;;;;25.97;100.00;100049.69;5014274;28;862;-63
2023/06/23 05:51:36;;;;;;;;;;;;;;;26.19;100.00;100044.16;5014496;28;1941;-63
2023/06/23 05:54:07;;;;;;;;;;;;;;;26.42;100.00;100041.47;5014308;28;893;-63
2023/06/23 05:56:40;;;;;;;;;;;;;;;26.73;100.00;100043.44;5014159;28;827;-64
2023/06/23 05:59:08;;;;;;;;;;;;;;;27.20;100.00;100037.38;5014084;28;858;-63
2023/06/23 06:01:39;;;;;;;;;;;;;;;27.81;100.00;100031.00;5014082;28;803;-64
2023/06/23 06:04:12;;;;;;;;;;;;;;;28.21;100.00;100028.91;5013958;28;847;-63
2023/06/23 06:06:40;;;;;;;;;;;;;;;28.55;100.00;100020.28;5014133;28;831;-63
2023/06/23 06:09:09;;;;;;;;;;;;;;;29.02;100.00;100028.06;5013949;28;921;-63
2023/06/23 06:11:38;;;;;;;;;;;;;;;29.43;98.89;100028.09;4980120;28;1941;-63
2023/06/23 06:14:07;;;;;;;;;;;;;;;29.50;95.86;100029.59;5013610;28;1198;-64
2023/06/23 06:16:35;;;;;;;;;;;;;;;29.39;94.71;100032.53;5013834;28;816;-64
2023/06/23 06:19:03;;;;;;;;;;;;;;;29.48;94.15;100038.66;5013605;28;974;-64
2023/06/23 06:21:32;;;;;;;;;;;;;;;30.07;92.17;100021.34;5013493;28;882;-64
2023/06/23 06:24:00;;;;;;;;;;;;;;;30.81;88.71;100032.66;4995943;28;2533;-64
2023/06/23 06:26:27;;;;;;;;;;;;;;;30.82;82.12;100029.28;5012823;28;815;-64
2023/06/23 06:28:56;;;;;;;;;;;;;;;30.70;81.70;100033.56;5013282;28;827;-63
2023/06/23 06:31:23;;;;;;;;;;;;;;;30.88;79.64;100041.41;5013416;28;1910;-63
2023/06/23 06:33:51;;;;;;;;;;;;;;;31.11;76.92;100036.16;5013419;28;866;-64
2023/06/23 06:36:19;;;;;;;;;;;;;;;31.60;75.19;100037.25;5013356;28;867;-63
2023/06/23 06:38:48;;;;;;;;;;;;;;;32.09;70.93;100048.38;5013362;28;885;-63
2023/06/23 06:41:16;;;;;;;;;;;;;;;32.54;62.81;100033.25;5013326;28;815;-64
2023/06/23 06:43:44;;;;;;;;;;;;;;;33.24;61.02;100029.13;5013821;28;815;-64
2023/06/23 06:46:11;;;;;;;;;;;;;;;33.73;57.88;100028.47;5013359;28;906;-64
2023/06/23 06:48:39;;;;;;;;;;;;;;;34.09;54.02;100019.94;5013518;28;822;-65
2023/06/23 06:51:07;;;;;;;;;;;;;;;34.71;50.39;100021.09;5013254;28;1935;-64
2023/06/23 06:53:35;;;;;;;;;;;;;;;35.25;47.20;100018.44;5013062;28;862;-65
2023/06/23 06:56:03;;;;;;;;;;;;;;;35.86;42.16;100026.34;5013160;28;819;-64
2023/06/23 06:58:31;;;;;;;;;;;;;;;36.38;40.86;100012.47;5013069;28;823;-66
2023/06/23 07:00:58;;;;;;;;;;;;;;;36.94;37.68;100009.56;5012782;28;882;-65
2023/06/23 07:03:26;;;;;;;;;;;;;;;36.93;36.41;100007.28;5012885;28;864;-66
2023/06/23 07:05:53;;;;;;;;;;;;;;;36.66;36.23;100004.13;5013127;28;799;-66
2023/06/23 07:08:20;;;;;;;;;;;;;;;36.56;35.72;100007.59;5012823;28;870;-65
2023/06/23 07:10:47;;;;;;;;;;;;;;;36.93;35.55;100008.03;5012756;28;1084;-65
2023/06/23 07:13:14;;;;;;;;;;;;;;;36.92;34.76;100000.75;4994738;28;1973;-65
2023/06/23 07:15:41;;;;;;;;;;;;;;;36.81;35.22;100006.97;5012744;28;803;-66
2023/06/23 07:18:09;;;;;;;;;;;;;;;37.14;34.20;99998.34;5012588;28;889;-66
2023/06/23 07:20:36;;;;;;;;;;;;;;;37.62;33.93;100003.97;5012573;28;878;-66
2023/06/23 07:23:04;;;;;;;;;;;;;;;37.74;32.76;100002.13;5012584;28;909;-65
2023/06/23 07:25:31;;;;;;;;;;;;;;;37.48;33.31;100000.59;4994796;28;1310;-65
2023/06/23 07:27:58;;;;;;;;;;;;;;;37.24;32.74;100002.13;5012492;28;1162;-65
2023/06/23 07:30:25;;;;;;;;;;;;;;;37.05;33.37;100008.34;5012463;28;807;-65
2023/06/23 07:32:53;;;;;;;;;;;;;;;37.04;33.25;99998.16;5012307;28;1918;-66
2023/06/23 07:35:21;;;;;;;;;;;;;;;37.42;32.77;99991.41;5012395;28;839;-65
2023/06/23 07:37:48;;;;;;;;;;;;;;;37.75;31.92;99994.25;5011989;28;890;-65
2023/06/23 07:40:15;;;;;;;;;;;;;;;37.89;31.36;99998.34;5012328;28;850;-65
2023/06/23 07:42:43;;;;;;;;;;;;;;;37.50;31.67;99992.13;5012224;28;862;-67
2023/06/23 07:45:10;;;;;;;;;;;;;;;37.20;32.46;100001.75;5012177;28;812;-65
2023/06/23 07:47:38;;;;;;;;;;;;;;;37.30;31.80;99999.00;5012176;28;803;-65
2023/06/23 07:50:05;;;;;;;;;;;;;;;37.72;31.02;100004.81;5012072;28;921;-64
2023/06/23 07:52:33;;;;;;;;;;;;;;;37.80;30.76;99996.88;5012007;28;1971;-65
2023/06/23 07:54:59;;;;;;;;;;;;;;;37.51;30.80;99996.53;5012050;28;866;-64
2023/06/23 07:57:26;;;;;;;;;;;;;;;37.59;30.48;99999.38;5010677;28;1380;-64
2023/06/23 07:59:53;;;;;;;;;;;;;;;37.52;30.32;99998.06;5011961;28;803;-65
2023/06/23 08:02:20;;;;;;;;;;;;;;;37.23;29.84;100003.47;5011980;28;870;-66
2023/06/23 08:04:48;;;;;;;;;;;;;;;37.30;29.44;99999.00;5011876;28;970;-65
2023/06/23 08:07:16;;;;;;;;;;;;;;;37.36;29.91;99997.44;5011966;28;854;-66
2023/06/23 08:09:44;;;;;;;;;;;;;;;37.42;29.66;99994.28;5011775;28;819;-66
2023/06/23 08:12:11;;;;;;;;;;;;;;;37.70;29.43;99998.13;5011469;28;1914;-65
2023/06/23 08:14:38;;;;;;;;;;;;;;;37.85;28.69;99992.22;5011834;28;799;-67
2023/06/23 08:17:06;;;;;;;;;;;;;;;37.73;29.20;99999.84;5011790;28;815;-65
2023/06/23 08:19:35;;;;;;;;;;;;;;;37.76;28.76;99992.88;5011627;28;890;-65
2023/06/23 08:22:03;;;;;;;;;;;;;;;37.29;29.54;99992.47;5011661;28;890;-67
2023/06/23 08:24:30;;;;;;;;;;;;;;;36.96;29.36;99997.47;4993990;28;1688;-64
2023/06/23 08:26:56;;;;;;;;;;;;;;;37.31;29.63;99983.25;5011639;28;963;-64
2023/06/23 08:29:24;;;;;;;;;;;;;;;37.79;28.58;99991.72;5011722;28;831;-67
2023/06/23 08:31:51;;;;;;;;;;;;;;;37.79;28.85;99985.94;5011478;28;1910;-65
2023/06/23 08:34:19;;;;;;;;;;;;;;;37.90;28.28;99988.34;5011601;28;854;-64
2023/06/23 08:36:46;;;;;;;;;;;;;;;38.16;27.88;99977.53;5011770;28;842;-65
2023/06/23 08:39:12;;;;;;;;;;;;;;;37.94;28.27;99979.25;5011738;28;823;-65
2023/06/23 08:41:39;;;;;;;;;;;;;;;37.62;28.91;99983.81;5011680;28;846;-66
2023/06/23 08:44:06;;;;;;;;;;;;;;;37.75;28.84;99974.84;5011497;28;825;-63
2023/06/23 08:46:33;;;;;;;;;;;;;;;37.38;29.03;99976.66;5011465;28;887;-64
2023/06/23 08:49:03;;;;;;;;;;;;;;;37.38;28.81;99980.31;5010935;28;886;-65
2023/06/23 08:51:28;;;;;;;;;;;;;;;37.26;29.04;99979.25;5013362;28;1960;-65
2023/06/23 08:53:55;;;;;;;;;;;;;;;37.39;28.81;99981.06;5016041;28;807;-63
2023/06/23 08:56:22;;;;;;;;;;;;;;;37.59;28.94;99968.44;5015327;28;817;-65
2023/06/23 08:58:49;;;;;;;;;;;;;;;37.38;28.65;99965.13;5015443;28;772;-65
2023/06/23 09:01:15;;;;;;;;;;;;;;;36.93;28.93;99964.81;5015068;28;866;-64
2023/06/23 09:03:43;;;;;;;;;;;;;;;36.92;28.69;99966.19;5015191;28;874;-65
2023/06/23 09:06:10;;;;;;;;;;;;;;;36.98;28.51;99971.72;5014994;28;910;-64
2023/06/23 09:08:37;;;;;;;;;;;;;;;36.79;28.73;99961.47;5015846;28;818;-63
2023/06/23 09:11:03;;;;;;;;;;;;;;;36.69;29.83;99965.56;5015042;28;990;-63
2023/06/23 09:13:41;;;;;;;;;;;;;;;36.91;28.96;99961.75;5014855;28;1882;-64
2023/06/23 09:16:09;;;;;;;;;;;;;;;36.76;28.95;99947.47;5014965;28;834;-64
2023/06/23 09:18:40;;;;;;;;;;;;;;;36.74;29.29;99950.16;5014728;28;846;-63
2023/06/23 09:21:08;;;;;;;;;;;;;;;36.66;29.78;99952.31;5014835;28;796;-64
2023/06/23 09:23:35;;;;;;;;;;;;;;;36.51;29.47;99953.13;5014805;28;811;-64
2023/06/23 09:26:03;;;;;;;;;;;;;;;36.51;29.58;99956.00;5014573;28;932;-64
2023/06/23 09:28:36;;;;;;;;;;;;;;;36.34;29.64;99945.91;5014612;28;975;-64
2023/06/23 09:31:13;;;;;;;;;;;;;;;36.13;29.47;99943.31;5014714;28;854;-64
2023/06/23 09:33:47;;;;;;;;;;;;;;;36.01;29.52;99944.28;5014833;28;862;-64
2023/06/23 09:36:14;;;;;;;;;;;;;;;36.05;28.82;99938.91;5014566;28;815;-63
2023/06/23 09:38:42;;;;;;;;;;;;;;;35.94;29.34;99940.06;4996908;28;782;-62
2023/06/23 10:12:11;;;;;;;;;;;;;;;34.91;30.23;99910.38;5561924;23;1882;-54
2023/06/23 10:14:38;;;;;;;;;;;;;;;34.66;30.55;99918.72;5013828;28;924;-56
2023/06/23 10:17:04;;;;;;;;;;;;;;;34.88;30.40;99905.75;5013797;28;818;-55
2023/06/23 10:19:31;;;;;;;;;;;;;;;34.70;30.08;99915.50;4996165;28;862;-56
2023/06/23 10:21:58;;;;;;;;;;;;;;;34.51;30.08;99907.19;5013765;28;822;-55
2023/06/23 10:24:27;;;;;;;;;;;;;;;34.40;30.13;99904.63;5013637;28;885;-56
2023/06/23 10:26:55;;;;;;;;;;;;;;;34.35;30.38;99906.34;5013783;28;823;-56
2023/06/23 10:29:23;;;;;;;;;;;;;;;34.45;30.02;99906.59;5013484;28;838;-56
2023/06/23 10:31:56;;;;;;;;;;;;;;;34.49;30.16;99910.59;5013422;28;1906;-56
2023/06/23 10:34:26;;;;;;;;;;;;;;;34.56;29.91;99907.00;5013673;28;842;-56
2023/06/23 10:36:56;;;;;;;;;;;;;;;34.93;29.84;99899.06;5013482;28;803;-56
2023/06/23 10:39:24;;;;;;;;;;;;;;;34.77;29.58;99897.50;5013268;28;878;-55
2023/06/23 10:41:52;;;;;;;;;;;;;;;34.69;30.20;99903.22;5013193;28;912;-56
2023/06/23 10:44:19;;;;;;;;;;;;;;;34.86;29.13;99904.78;5013324;28;869;-56
2023/06/23 10:46:46;;;;;;;;;;;;;;;34.93;28.48;99904.81;5013561;28;830;-55
2023/06/23 10:49:13;;;;;;;;;;;;;;;35.01;28.68;99896.19;5013205;28;839;-56
2023/06/23 10:51:41;;;;;;;;;;;;;;;35.29;28.01;99894.50;5013088;28;1886;-57
2023/06/23 10:54:09;;;;;;;;;;;;;;;35.47;28.01;99896.22;5013095;28;832;-56
2023/06/23 10:56:37;;;;;;;;;;;;;;;35.97;28.34;99893.66;5012950;28;886;-56
2023/06/23 10:59:22;;;;;;;;;;;;;;;36.20;28.66;99880.56;5013079;28;803;-56
2023/06/23 11:02:07;;;;;;;;;;;;;;;36.23;28.79;99879.41;5012996;28;894;-57
2023/06/23 11:04:35;;;;;;;;;;;;;;;36.32;28.82;99888.19;5012760;28;859;-56
2023/06/23 11:07:14;;;;;;;;;;;;;;;36.27;28.77;99880.53;5012833;28;846;-56
2023/06/23 11:10:01;;;;;;;;;;;;;;;36.29;28.28;99882.81;5012686;28;867;-57
2023/06/23 11:12:27;;;;;;;;;;;;;;;36.23;27.69;99879.41;5012099;28;1953;-56
2023/06/23 11:14:59;;;;;;;;;;;;;;;36.32;27.48;99868.06;5012503;28;846;-56
2023/06/23 11:17:25;;;;;;;;;;;;;;;36.62;28.34;99872.13;5012905;28;1113;-56
2023/06/23 11:19:53;;;;;;;;;;;;;;;36.95;28.49;99869.97;5013285;28;799;-56
2023/06/23 11:22:24;;;;;;;;;;;;;;;37.18;27.94;99869.06;5012886;28;818;-56
2023/06/23 11:24:54;;;;;;;;;;;;;;;37.18;27.19;99861.16;5012683;28;822;-57
2023/06/23 11:27:20;;;;;;;;;;;;;;;37.27;27.24;99867.63;5012318;28;859;-57
2023/06/23 11:30:05;;;;;;;;;;;;;;;36.90;27.58;99864.47;5012574;28;873;-56
2023/06/23 11:32:33;;;;;;;;;;;;;;;36.86;27.50;99864.84;5012349;28;1969;-55
2023/06/23 11:35:04;;;;;;;;;;;;;;;36.97;27.10;99858.63;4994667;28;796;-56
2023/06/23 11:37:31;;;;;;;;;;;;;;;37.41;26.36;99851.56;4994937;28;923;-56
2023/06/23 11:39:59;;;;;;;;;;;;;;;38.01;26.19;99845.72;5012248;28;850;-56
2023/06/23 11:42:27;;;;;;;;;;;;;;;38.10;25.74;99852.94;5012230;28;878;-56
2023/06/23 11:44:59;;;;;;;;;;;;;;;37.92;25.79;99846.41;5012097;28;830;-57
2023/06/23 11:47:29;;;;;;;;;;;;;;;37.80;26.10;99852.69;5012227;28;854;-56
2023/06/23 11:49:56;;;;;;;;;;;;;;;37.87;25.91;99853.94;5012122;28;902;-56
2023/06/23 11:52:23;;;;;;;;;;;;;;;38.29;24.93;99840.78;5012105;28;1894;-56
2023/06/23 11:54:51;;;;;;;;;;;;;;;38.93;24.73;99841.56;5012085;28;783;-57
2023/06/23 11:57:19;;;;;;;;;;;;;;;39.48;23.97;99847.22;5011929;28;862;-57
2023/06/23 11:59:46;;;;;;;;;;;;;;;39.63;23.63;99840.38;5012358;28;842;-56
2023/06/23 12:02:14;;;;;;;;;;;;;;;39.62;24.06;99842.50;5012163;28;838;-56
2023/06/23 12:04:41;;;;;;;;;;;;;;;39.36;23.98;99838.34;5012161;28;895;-56
2023/06/23 12:07:10;;;;;;;;;;;;;;;39.10;24.36;99840.72;4994564;28;1495;-57
2023/06/23 12:09:37;;;;;;;;;;;;;;;38.74;24.93;99847.25;5011721;28;903;-57
2023/06/23 12:12:04;;;;;;;;;;;;;;;38.87;24.92;99843.19;5011696;28;1890;-56
2023/06/23 12:14:33;;;;;;;;;;;;;;;39.46;24.11;99842.03;5011929;28;806;-58
2023/06/23 12:17:17;;;;;;;;;;;;;;;39.80;24.00;99831.56;5011708;28;949;-58
2023/06/23 12:19:43;;;;;;;;;;;;;;;39.72;24.49;99834.59;5011978;28;818;-57
2023/06/23 12:22:15;;;;;;;;;;;;;;;40.06;23.60;99843.59;5012564;28;803;-57
2023/06/23 12:24:42;;;;;;;;;;;;;;;40.24;23.70;99836.22;5013301;28;846;-57
2023/06/23 12:27:12;;;;;;;;;;;;;;;40.16;23.25;99845.09;5016015;28;857;-57
2023/06/23 12:29:38;;;;;;;;;;;;;;;40.20;23.23;99830.91;5015653;28;957;-57
2023/06/23 12:32:05;;;;;;;;;;;;;;;40.01;23.52;99837.50;5015656;28;1906;-57
2023/06/23 12:34:33;;;;;;;;;;;;;;;39.93;23.30;99833.25;5015750;28;818;-57
2023/06/23 12:37:04;;;;;;;;;;;;;;;40.15;23.26;99831.97;5015593;28;943;-57
2023/06/23 12:39:31;;;;;;;;;;;;;;;40.15;23.07;99839.91;5015424;28;862;-57
2023/06/23 12:41:58;;;;;;;;;;;;;;;40.30;22.89;99828.00;4998059;28;919;-57
2023/06/23 12:44:28;;;;;;;;;;;;;;;40.20;22.74;99828.03;5015522;28;862;-57
2023/06/23 12:46:56;;;;;;;;;;;;;;;40.12;22.57;99833.22;5015376;28;927;-57
2023/06/23 12:49:31;;;;;;;;;;;;;;;39.69;22.73;99820.56;5015475;28;838;-57
2023/06/23 12:52:00;;;;;;;;;;;;;;;38.98;23.18;99822.44;5015194;28;1883;-57
2023/06/23 12:54:27;;;;;;;;;;;;;;;38.96;23.35;99820.16;5015350;28;866;-56
2023/06/23 12:57:00;;;;;;;;;;;;;;;39.32;22.93;99817.78;5015346;28;846;-57
2023/06/23 12:59:28;;;;;;;;;;;;;;;39.28;23.13;99821.13;5015306;28;823;-57
2023/06/23 13:01:55;;;;;;;;;;;;;;;39.27;23.18;99822.50;5015231;28;870;-57
2023/06/23 13:04:22;;;;;;;;;;;;;;;39.24;23.59;99820.06;5015121;28;865;-56
2023/06/23 13:06:50;;;;;;;;;;;;;;;39.25;23.41;99812.94;5015240;28;847;-57
2023/06/23 13:09:17;;;;;;;;;;;;;;;38.86;24.20;99819.34;4997220;28;1304;-57
2023/06/23 13:11:43;;;;;;;;;;;;;;;38.98;24.56;99819.53;5014718;28;1886;-57
2023/06/23 13:14:10;;;;;;;;;;;;;;;39.20;23.94;99820.53;5015034;28;885;-56
2023/06/23 13:16:37;;;;;;;;;;;;;;;38.99;24.45;99818.19;5014885;28;846;-56
2023/06/23 13:19:02;;;;;;;;;;;;;;;38.66;25.06;99824.25;5014837;28;834;-56
2023/06/23 13:21:29;;;;;;;;;;;;;;;38.32;25.62;99819.38;5014842;28;874;-57
2023/06/23 13:23:56;;;;;;;;;;;;;;;38.16;25.70;99816.69;5014833;28;839;-57
2023/06/23 13:26:22;;;;;;;;;;;;;;;38.05;26.30;99825.91;5014751;28;846;-57
2023/06/23 13:28:49;;;;;;;;;;;;;;;38.15;25.60;99820.94;5014784;28;877;-57
2023/06/23 13:31:15;;;;;;;;;;;;;;;38.13;26.07;99814.22;5014718;28;803;-56
2023/06/23 13:33:44;;;;;;;;;;;;;;;37.58;26.50;99811.22;5014571;28;2388;-57